createdAt,value
2018-12-10T00:00:57.774Z,973.3
2018-12-10T00:01:59.226Z,973.1
2018-12-10T00:03:00.468Z,973.3
2018-12-10T00:04:01.697Z,973.2
2018-12-10T00:05:02.962Z,973.4
2018-12-10T00:06:04.295Z,973.3
2018-12-10T00:07:06.851Z,973.4
2018-12-10T00:08:08.140Z,973.3
2018-12-10T00:09:09.788Z,973.3
2018-12-10T00:10:17.273Z,973.3
2018-12-10T00:11:18.508Z,973.4
2018-12-10T00:12:19.728Z,973.4
2018-12-10T00:13:27.287Z,973.2
2018-12-10T00:14:28.561Z,973.2
2018-12-10T00:15:29.847Z,973.4
2018-12-10T00:16:31.080Z,973.3
2018-12-10T00:17:32.348Z,973.3
2018-12-10T00:18:33.908Z,973.3
2018-12-10T00:19:35.155Z,973.4
2018-12-10T00:20:36.407Z,973.5
2018-12-10T00:21:37.637Z,973.5
2018-12-10T00:22:39.090Z,973.4
2018-12-10T00:23:40.375Z,973.4
2018-12-10T00:24:41.963Z,973.4
2018-12-10T00:25:43.214Z,973.4
2018-12-10T00:26:44.783Z,973.5
2018-12-10T00:27:46.027Z,973.5
2018-12-10T00:28:49.682Z,973.5
2018-12-10T00:29:51.766Z,973.6
2018-12-10T00:30:53.037Z,973.7
2018-12-10T00:31:54.263Z,973.6
2018-12-10T00:32:55.493Z,973.6
2018-12-10T00:33:56.735Z,973.7
2018-12-10T00:34:57.963Z,973.6
2018-12-10T00:35:59.231Z,973.7
2018-12-10T00:37:00.456Z,973.7
2018-12-10T00:38:01.946Z,973.7
2018-12-10T00:39:03.173Z,973.8
2018-12-10T00:40:04.415Z,973.8
2018-12-10T00:41:05.699Z,973.9
2018-12-10T00:42:06.937Z,973.9
2018-12-10T00:43:08.173Z,973.9
2018-12-10T00:44:09.464Z,973.9
2018-12-10T00:45:10.698Z,973.7
2018-12-10T00:46:11.955Z,974
2018-12-10T00:47:13.184Z,973.9
2018-12-10T00:48:14.399Z,974
2018-12-10T00:49:15.650Z,973.9
2018-12-10T00:50:16.891Z,974
2018-12-10T00:51:18.144Z,974
2018-12-10T00:52:19.397Z,974
2018-12-10T00:53:20.632Z,974
2018-12-10T00:54:21.894Z,974.1
2018-12-10T00:55:23.180Z,974
2018-12-10T00:56:24.465Z,974.3
2018-12-10T00:57:25.710Z,974
2018-12-10T00:58:26.967Z,974
2018-12-10T00:59:28.230Z,974.1
2018-12-10T01:00:29.450Z,974.2
2018-12-10T01:01:30.878Z,974.2
2018-12-10T01:02:34.879Z,974.1
2018-12-10T01:03:36.102Z,974
2018-12-10T01:04:37.426Z,974.2
2018-12-10T01:05:38.667Z,974.2
2018-12-10T01:06:39.930Z,974.2
2018-12-10T01:07:41.251Z,974.1
2018-12-10T01:08:42.502Z,974.2
2018-12-10T01:09:43.747Z,974.2
2018-12-10T01:10:44.969Z,974.2
2018-12-10T01:11:46.248Z,974.1
2018-12-10T01:12:47.491Z,974.2
2018-12-10T01:13:48.734Z,974.1
2018-12-10T01:14:49.988Z,974.1
2018-12-10T01:15:51.235Z,974.2
2018-12-10T01:16:52.840Z,974.1
2018-12-10T01:17:54.168Z,974.2
2018-12-10T01:18:56.070Z,974.3
2018-12-10T01:19:57.332Z,974.2
2018-12-10T01:20:58.596Z,974.2
2018-12-10T01:21:59.854Z,974.2
2018-12-10T01:23:01.081Z,974.2
2018-12-10T01:24:02.323Z,974.3
2018-12-10T01:25:03.575Z,974.3
2018-12-10T01:26:04.826Z,974.4
2018-12-10T01:27:06.099Z,974.1
2018-12-10T01:28:07.347Z,974.4
2018-12-10T01:29:08.648Z,974.3
2018-12-10T01:30:10.132Z,974.4
2018-12-10T01:31:12.597Z,974.4
2018-12-10T01:32:14.588Z,974.3
2018-12-10T01:33:15.831Z,974.4
2018-12-10T01:34:20.304Z,974.4
2018-12-10T01:35:24.223Z,974.4
2018-12-10T01:36:25.435Z,974.3
2018-12-10T01:37:26.707Z,974.4
2018-12-10T01:38:28.226Z,974.5
2018-12-10T01:39:29.458Z,974.6
2018-12-10T01:40:30.686Z,974.6
2018-12-10T01:41:32.006Z,974.5
2018-12-10T01:42:33.271Z,974.6
2018-12-10T01:43:34.521Z,974.6
2018-12-10T01:44:35.936Z,974.7
2018-12-10T01:45:37.169Z,974.7
2018-12-10T01:46:38.457Z,974.6
2018-12-10T01:47:39.731Z,974.7
2018-12-10T01:48:40.963Z,974.7
2018-12-10T01:49:42.190Z,974.7
2018-12-10T01:50:43.569Z,974.8
2018-12-10T01:51:44.815Z,974.7
2018-12-10T01:52:46.141Z,974.8
2018-12-10T01:53:47.389Z,974.6
2018-12-10T01:54:48.665Z,974.6
2018-12-10T01:55:49.922Z,974.6
2018-12-10T01:56:51.177Z,974.8
2018-12-10T01:57:52.470Z,974.8
2018-12-10T01:58:53.710Z,974.7
2018-12-10T01:59:54.953Z,974.7
2018-12-10T02:00:56.283Z,974.8
2018-12-10T02:01:57.529Z,974.8
2018-12-10T02:02:58.898Z,974.8
2018-12-10T02:04:00.142Z,974.8
2018-12-10T02:05:01.371Z,975
2018-12-10T02:06:02.626Z,974.9
2018-12-10T02:07:03.860Z,974.9
2018-12-10T02:08:08.115Z,975
2018-12-10T02:09:09.591Z,975
2018-12-10T02:10:10.838Z,975
2018-12-10T02:11:12.181Z,975
2018-12-10T02:12:13.407Z,974.9
2018-12-10T02:13:14.678Z,975
2018-12-10T02:14:16.027Z,975.1
2018-12-10T02:15:17.271Z,975
2018-12-10T02:16:18.550Z,975.1
2018-12-10T02:17:19.971Z,974.9
2018-12-10T02:18:21.589Z,975
2018-12-10T02:19:22.811Z,975
2018-12-10T02:20:24.035Z,974.9
2018-12-10T02:21:25.282Z,975
2018-12-10T02:22:26.533Z,974.9
2018-12-10T02:23:28.207Z,975
2018-12-10T02:24:29.450Z,975
2018-12-10T02:25:30.687Z,975
2018-12-10T02:26:31.979Z,974.8
2018-12-10T02:27:33.206Z,975.1
2018-12-10T02:28:34.466Z,975.1
2018-12-10T02:29:35.846Z,975.1
2018-12-10T02:30:37.099Z,975.1
2018-12-10T02:31:38.338Z,975.1
2018-12-10T02:32:39.711Z,975
2018-12-10T02:33:46.060Z,975
2018-12-10T02:34:47.310Z,975.2
2018-12-10T02:35:48.635Z,975.2
2018-12-10T02:36:49.912Z,975
2018-12-10T02:37:51.139Z,975.1
2018-12-10T02:38:52.425Z,975.3
2018-12-10T02:39:53.686Z,975.2
2018-12-10T02:40:54.911Z,975.2
2018-12-10T02:43:11.803Z,975.2
2018-12-10T02:44:16.099Z,975.3
2018-12-10T02:45:17.339Z,975.3
2018-12-10T02:46:18.583Z,975.3
2018-12-10T02:47:19.825Z,975.4
2018-12-10T02:48:21.460Z,975.4
2018-12-10T02:49:22.918Z,975.4
2018-12-10T02:50:24.171Z,975.5
2018-12-10T02:51:25.429Z,975.3
2018-12-10T02:52:28.026Z,975.5
2018-12-10T02:53:29.300Z,975.2
2018-12-10T02:54:30.612Z,975.4
2018-12-10T02:55:32.234Z,975.3
2018-12-10T02:56:33.529Z,975.4
2018-12-10T02:57:34.773Z,975.5
2018-12-10T02:58:35.992Z,975.6
2018-12-10T02:59:37.276Z,975.5
2018-12-10T03:00:38.535Z,975.4
2018-12-10T03:01:39.974Z,975.5
2018-12-10T03:02:41.796Z,975.5
2018-12-10T03:03:43.447Z,975.5
2018-12-10T03:04:44.724Z,975.4
2018-12-10T03:05:48.744Z,975.5
2018-12-10T03:06:51.033Z,975.6
2018-12-10T03:07:52.274Z,975.6
2018-12-10T03:08:54.669Z,975.6
2018-12-10T03:09:55.960Z,975.6
2018-12-10T03:10:57.197Z,975.7
2018-12-10T03:11:58.437Z,975.5
2018-12-10T03:12:59.658Z,975.6
2018-12-10T03:14:00.883Z,975.7
2018-12-10T03:15:02.206Z,975.7
2018-12-10T03:16:03.481Z,975.7
2018-12-10T03:17:04.723Z,975.8
2018-12-10T03:18:05.966Z,975.7
2018-12-10T03:19:07.210Z,975.7
2018-12-10T03:20:08.545Z,975.8
2018-12-10T03:21:09.770Z,975.9
2018-12-10T03:22:11.013Z,975.9
2018-12-10T03:23:12.274Z,975.9
2018-12-10T03:24:13.526Z,975.9
2018-12-10T03:25:14.800Z,975.8
2018-12-10T03:26:16.086Z,975.7
2018-12-10T03:27:17.350Z,975.8
2018-12-10T03:28:19.069Z,975.9
2018-12-10T03:29:20.292Z,975.9
2018-12-10T03:30:21.664Z,976
2018-12-10T03:31:22.980Z,976
2018-12-10T03:32:24.239Z,975.9
2018-12-10T03:33:25.500Z,975.9
2018-12-10T03:34:26.729Z,975.7
2018-12-10T03:35:28.066Z,975.9
2018-12-10T03:36:29.334Z,975.9
2018-12-10T03:37:30.555Z,975.9
2018-12-10T03:38:31.799Z,975.9
2018-12-10T03:39:33.047Z,975.9
2018-12-10T03:40:34.328Z,975.9
2018-12-10T03:41:35.632Z,976
2018-12-10T03:42:36.900Z,976
2018-12-10T03:43:38.169Z,976
2018-12-10T03:44:39.409Z,976
2018-12-10T03:45:40.907Z,976
2018-12-10T03:46:42.154Z,976
2018-12-10T03:47:43.611Z,976
2018-12-10T03:48:46.129Z,976
2018-12-10T03:49:47.475Z,976.1
2018-12-10T03:50:48.774Z,976
2018-12-10T03:51:50.045Z,976.2
2018-12-10T03:52:53.605Z,976.1
2018-12-10T03:53:54.949Z,976.1
2018-12-10T22:52:41.747Z,979.8
2018-12-10T22:53:43.398Z,979.7
2018-12-10T22:54:44.744Z,979.8
2018-12-10T22:55:46.056Z,979.7
2018-12-10T22:56:51.699Z,979.8
2018-12-10T22:57:53.043Z,979.6
2018-12-10T22:58:54.497Z,979.8
2018-12-10T22:59:56.077Z,979.5
2018-12-10T23:00:57.796Z,979.8
2018-12-10T23:02:01.892Z,979.8
2018-12-10T23:03:03.345Z,979.6
2018-12-10T23:04:05.153Z,979.8
2018-12-10T23:05:06.525Z,979.5
2018-12-10T23:06:08.056Z,979.6
2018-12-10T23:07:09.460Z,979.7
2018-12-10T23:08:10.875Z,979.7
2018-12-10T23:09:12.198Z,979.5
2018-12-10T23:10:13.477Z,979.6
2018-12-10T23:11:14.752Z,979.5
2018-12-10T23:12:16.022Z,979.7
2018-12-10T23:13:17.318Z,979.7
2018-12-10T23:14:18.586Z,979.7
2018-12-10T23:15:22.052Z,979.6
2018-12-10T23:16:23.323Z,979.6
2018-12-10T23:17:24.624Z,979.7
2018-12-10T23:18:25.949Z,979.7
2018-12-10T23:19:27.297Z,979.6
2018-12-10T23:20:28.569Z,979.7
2018-12-10T23:21:30.137Z,979.7
2018-12-10T23:22:31.478Z,979.7
2018-12-10T23:23:32.939Z,979.6
2018-12-10T23:24:34.204Z,979.7
2018-12-10T23:25:35.505Z,979.8
2018-12-10T23:26:36.780Z,979.8
2018-12-10T23:27:38.061Z,979.8
2018-12-10T23:28:39.385Z,979.7
2018-12-10T23:29:40.658Z,979.8
2018-12-10T23:30:41.932Z,979.9
2018-12-10T23:31:43.195Z,979.8
2018-12-10T23:32:44.611Z,979.8
2018-12-10T23:33:45.909Z,979.8
2018-12-10T23:34:49.280Z,979.8
2018-12-10T23:35:51.826Z,979.8
2018-12-10T23:36:53.083Z,979.7
2018-12-10T23:37:54.356Z,979.8
2018-12-10T23:38:55.657Z,979.8
2018-12-10T23:39:56.953Z,979.7
2018-12-10T23:41:01.296Z,979.8
2018-12-10T23:42:03.779Z,979.9
2018-12-10T23:43:05.271Z,979.9
2018-12-10T23:44:06.962Z,979.8
2018-12-10T23:45:09.584Z,980
2018-12-10T23:46:11.601Z,979.8
2018-12-10T23:47:13.620Z,979.9
2018-12-10T23:48:15.208Z,979.9
2018-12-10T23:49:16.512Z,979.9
2018-12-10T23:50:17.755Z,979.9
2018-12-10T23:51:19.032Z,980
2018-12-10T23:52:20.338Z,979.9
2018-12-10T23:53:21.615Z,979.9
2018-12-10T23:54:23.206Z,979.9
2018-12-10T23:55:24.450Z,979.9
2018-12-10T23:56:25.736Z,980
2018-12-10T23:57:27.028Z,979.9
2018-12-10T23:58:28.631Z,980
2018-12-10T23:59:29.939Z,980
